createdAt,value
2023-04-12T00:01:49.817Z,3.30
2023-04-12T00:04:51.170Z,2.67
2023-04-12T00:07:52.532Z,3.45
2023-04-12T00:10:53.822Z,2.78
2023-04-12T00:13:55.272Z,3.15
2023-04-12T00:16:56.728Z,2.40
2023-04-12T00:19:58.028Z,3.00
2023-04-12T00:22:59.319Z,2.88
2023-04-12T00:26:00.640Z,3.50
2023-04-12T00:29:01.946Z,3.10
2023-04-12T00:32:03.257Z,2.30
2023-04-12T00:35:04.614Z,2.97
2023-04-12T00:38:05.915Z,2.70
2023-04-12T00:41:07.288Z,2.83
2023-04-12T00:44:08.615Z,2.90
2023-04-12T00:47:09.953Z,2.43
2023-04-12T00:50:11.221Z,2.92
2023-04-12T00:53:12.538Z,2.55
2023-04-12T00:56:13.814Z,2.90
2023-04-12T00:59:15.112Z,3.05
2023-04-12T01:02:16.483Z,3.07
2023-04-12T01:05:17.888Z,2.30
2023-04-12T01:08:19.191Z,2.83
2023-04-12T01:11:20.509Z,3.15
2023-04-12T01:14:21.799Z,3.50
2023-04-12T01:17:23.144Z,2.67
2023-04-12T01:20:24.469Z,3.33
2023-04-12T01:23:25.771Z,2.85
2023-04-12T01:26:27.107Z,2.53
2023-04-12T01:29:28.434Z,2.97
2023-04-12T01:32:29.777Z,3.03
2023-04-12T01:35:31.168Z,3.00
2023-04-12T01:38:32.503Z,3.15
2023-04-12T01:41:33.796Z,2.33
2023-04-12T01:44:35.101Z,3.33
2023-04-12T01:47:36.454Z,2.90
2023-04-12T01:50:37.767Z,2.75
2023-04-12T01:53:39.080Z,2.97
2023-04-12T01:56:40.600Z,2.30
2023-04-12T01:59:41.994Z,2.42
2023-04-12T02:02:43.563Z,3.10
2023-04-12T02:05:44.986Z,2.38
2023-04-12T02:08:46.292Z,1.98
2023-04-12T02:11:47.585Z,2.28
2023-04-12T02:14:48.900Z,2.17
2023-04-12T02:17:50.239Z,4.37
2023-04-12T02:20:51.561Z,2.00
2023-04-12T02:23:52.869Z,2.45
2023-04-12T02:26:54.168Z,2.28
2023-04-12T02:29:55.457Z,1.88
2023-04-12T02:32:56.829Z,2.27
2023-04-12T02:35:58.111Z,2.47
2023-04-12T02:38:59.409Z,2.65
2023-04-12T02:42:00.704Z,1.75
2023-04-12T02:45:02.009Z,2.10
2023-04-12T02:48:03.323Z,2.30
2023-04-12T02:51:04.690Z,1.92
2023-04-12T02:54:05.980Z,2.17
2023-04-12T02:57:07.282Z,2.08
2023-04-12T03:00:08.584Z,2.08
2023-04-12T03:03:09.944Z,2.00
2023-04-12T03:06:11.295Z,2.38
2023-04-12T03:09:12.587Z,2.70
2023-04-12T03:12:13.889Z,2.38
2023-04-12T03:15:15.187Z,1.50
2023-04-12T03:18:16.460Z,1.77
2023-04-12T03:21:17.806Z,2.47
2023-04-12T03:24:19.094Z,1.95
2023-04-12T03:27:20.393Z,1.83
2023-04-12T03:30:21.690Z,2.10
2023-04-12T03:33:22.955Z,2.00
2023-04-12T03:36:24.260Z,3.22
2023-04-12T03:39:25.567Z,1.58
2023-04-12T03:42:33.144Z,1.58
2023-04-12T03:45:35.228Z,1.60
2023-04-12T03:48:36.559Z,2.10
2023-04-12T03:51:37.864Z,2.05
2023-04-12T03:54:39.170Z,2.60
2023-04-12T03:57:40.456Z,2.72
2023-04-12T04:00:41.782Z,1.92
2023-04-12T04:03:43.829Z,1.77
2023-04-12T04:06:45.301Z,1.65
2023-04-12T04:09:46.587Z,1.73
2023-04-12T04:12:47.885Z,8.20
2023-04-12T04:15:49.155Z,1.90
2023-04-12T04:18:50.457Z,2.07
2023-04-12T04:21:51.756Z,2.10
2023-04-12T04:24:53.079Z,1.73
2023-04-12T04:27:54.370Z,1.75
2023-04-12T04:30:55.701Z,2.53
2023-04-12T04:33:57.301Z,1.77
2023-04-12T04:36:58.882Z,2.70
2023-04-12T04:40:00.193Z,1.85
2023-04-12T04:43:01.507Z,2.50
2023-04-12T04:46:02.835Z,2.00
2023-04-12T04:49:04.149Z,2.67
2023-04-12T04:52:05.443Z,2.05
2023-04-12T04:55:08.584Z,1.80
2023-04-12T04:58:11.158Z,3.30
2023-04-12T05:01:12.492Z,2.42
2023-04-12T05:04:13.915Z,2.40
2023-04-12T05:07:15.256Z,2.45
2023-04-12T05:10:16.549Z,2.53
2023-04-12T05:13:17.860Z,2.15
2023-04-12T05:16:19.226Z,2.20
2023-04-12T05:19:20.543Z,2.37
2023-04-12T05:22:21.843Z,2.90
2023-04-12T05:25:23.147Z,3.30
2023-04-12T05:28:24.461Z,2.35
2023-04-12T05:31:25.877Z,3.65
2023-04-12T05:34:27.305Z,2.33
2023-04-12T05:37:28.636Z,5.88
2023-04-12T05:40:29.990Z,3.35
2023-04-12T05:43:31.295Z,4.15
2023-04-12T05:46:32.602Z,48.65
2023-04-12T05:49:33.946Z,52.77
2023-04-12T05:52:35.255Z,55.20
2023-04-12T05:55:37.872Z,58.33
2023-04-12T05:58:39.570Z,43.45
2023-04-12T06:01:40.902Z,40.80
2023-04-12T06:04:49.360Z,37.93
2023-04-12T06:07:51.834Z,37.90
2023-04-12T06:10:53.123Z,36.58
2023-04-12T06:13:54.441Z,33.67
2023-04-12T06:16:55.780Z,26.42
2023-04-12T06:19:57.101Z,19.43
2023-04-12T06:22:58.442Z,22.55
2023-04-12T06:25:59.736Z,28.23
2023-04-12T06:29:01.075Z,25.05
2023-04-12T06:32:02.397Z,26.27
2023-04-12T06:35:03.776Z,31.87
2023-04-12T06:38:05.123Z,26.15
2023-04-12T06:41:06.462Z,24.20
2023-04-12T06:44:07.789Z,23.42
2023-04-12T06:47:09.299Z,24.40
2023-04-12T06:50:10.806Z,26.10
2023-04-12T06:53:12.097Z,18.60
2023-04-12T06:56:13.441Z,21.17
2023-04-12T06:59:14.777Z,17.92
2023-04-12T07:02:16.176Z,13.30
2023-04-12T07:05:17.767Z,16.93
2023-04-12T07:08:19.126Z,18.58
2023-04-12T07:11:22.173Z,13.43
2023-04-12T07:14:23.697Z,14.00
2023-04-12T07:17:25.035Z,15.75
2023-04-12T07:20:26.420Z,20.13
2023-04-12T07:23:27.747Z,15.77
2023-04-12T07:26:29.037Z,11.05
2023-04-12T07:29:30.329Z,8.63
2023-04-12T07:32:31.698Z,13.52
2023-04-12T07:35:33.064Z,7.60
2023-04-12T07:38:34.404Z,9.23
2023-04-12T07:41:35.732Z,11.75
2023-04-12T07:44:38.875Z,8.93
2023-04-12T07:47:40.435Z,9.18
2023-04-12T07:50:41.737Z,10.43
2023-04-12T07:53:43.054Z,10.82
2023-04-12T07:56:44.348Z,17.52
2023-04-12T07:59:45.657Z,15.68
2023-04-12T08:02:47.067Z,14.43
2023-04-12T08:05:48.569Z,18.97
2023-04-12T08:08:49.896Z,22.13
2023-04-12T08:11:51.190Z,113.70
2023-04-12T08:14:52.533Z,103.63
2023-04-12T08:17:53.966Z,79.30
2023-04-12T08:20:55.350Z,89.07
2023-04-12T08:23:56.843Z,81.18
2023-04-12T08:26:58.430Z,62.85
2023-04-12T08:29:59.765Z,81.68
2023-04-12T08:33:01.106Z,56.80
2023-04-12T08:36:02.615Z,53.23
2023-04-12T08:39:03.961Z,40.22
2023-04-12T08:42:05.263Z,42.58
2023-04-12T08:45:06.568Z,31.60
2023-04-12T08:48:07.912Z,26.38
2023-04-12T08:51:09.224Z,20.20
2023-04-12T08:54:10.515Z,21.90
2023-04-12T08:57:11.828Z,173.10
2023-04-12T09:00:13.165Z,161.10
2023-04-12T09:03:14.677Z,125.05
2023-04-12T09:06:16.107Z,101.77
2023-04-12T09:09:17.401Z,78.90
2023-04-12T09:12:18.709Z,58.33
2023-04-12T09:15:19.995Z,57.40
2023-04-12T09:18:21.361Z,52.65
2023-04-12T09:21:22.797Z,54.50
2023-04-12T09:24:24.152Z,42.40
2023-04-12T09:27:25.518Z,39.15
2023-04-12T09:30:26.821Z,36.20
2023-04-12T09:33:28.114Z,51.30
2023-04-12T09:36:29.438Z,31.03
2023-04-12T09:39:30.798Z,29.98
2023-04-12T09:42:33.855Z,37.25
2023-04-12T09:45:35.904Z,26.40
2023-04-12T09:48:37.228Z,21.60
2023-04-12T09:51:38.577Z,31.57
2023-04-12T09:54:39.903Z,33.13
2023-04-12T09:57:41.204Z,28.48
2023-04-12T10:00:42.538Z,27.15
2023-04-12T10:03:43.924Z,25.23
2023-04-12T10:06:45.289Z,30.80
2023-04-12T10:09:46.596Z,26.77
2023-04-12T10:12:47.982Z,26.10
2023-04-12T10:15:49.351Z,29.88
2023-04-12T10:18:50.693Z,26.10
2023-04-12T10:21:51.986Z,20.20
2023-04-12T10:24:53.326Z,19.55
2023-04-12T10:27:54.654Z,25.98
2023-04-12T10:30:55.946Z,17.35
2023-04-12T10:33:57.262Z,17.83
2023-04-12T10:36:58.700Z,24.97
2023-04-12T10:40:00.067Z,16.08
2023-04-12T10:43:01.528Z,20.48
2023-04-12T10:46:02.838Z,17.30
2023-04-12T10:49:04.185Z,12.93
2023-04-12T10:52:05.517Z,15.90
2023-04-12T10:55:06.840Z,13.93
2023-04-12T10:58:08.160Z,9.88
2023-04-12T11:01:10.884Z,15.48
2023-04-12T11:04:12.387Z,14.88
2023-04-12T11:07:13.902Z,12.13
2023-04-12T11:10:15.277Z,11.55
2023-04-12T11:13:16.624Z,12.63
2023-04-12T11:16:17.982Z,7.30
2023-04-12T11:19:19.426Z,7.07
2023-04-12T11:22:20.727Z,8.60
2023-04-12T11:25:22.065Z,5.75
2023-04-12T11:28:29.712Z,10.00
2023-04-12T11:31:31.950Z,13.38
2023-04-12T11:34:33.289Z,6.05
2023-04-12T11:37:34.620Z,8.07
2023-04-12T11:40:35.958Z,7.97
2023-04-12T11:43:37.244Z,8.48
2023-04-12T11:46:38.537Z,9.90
2023-04-12T11:49:39.854Z,15.73
2023-04-12T11:52:41.307Z,7.63
2023-04-12T11:55:42.750Z,8.93
2023-04-12T11:58:44.081Z,4.75
2023-04-12T12:01:45.413Z,9.98
2023-04-12T12:04:46.926Z,107.93
2023-04-12T12:07:48.449Z,52.73
2023-04-12T12:11:06.313Z,22.40
2023-04-12T12:14:08.882Z,31.35
2023-04-12T12:17:10.189Z,37.83
2023-04-12T12:20:11.495Z,42.15
2023-04-12T12:23:12.797Z,38.70
2023-04-12T12:26:18.348Z,47.33
2023-04-12T12:29:20.078Z,27.90
2023-04-12T12:32:21.380Z,29.23
2023-04-12T12:35:22.727Z,21.83
2023-04-12T12:38:31.436Z,21.70
2023-04-12T12:41:33.621Z,22.25
2023-04-12T12:44:37.558Z,16.80
2023-04-12T12:47:39.372Z,15.88
2023-04-12T12:50:40.832Z,16.73
2023-04-12T12:53:42.139Z,18.17
2023-04-12T12:56:43.460Z,13.88
2023-04-12T12:59:44.796Z,14.80
2023-04-12T13:02:46.321Z,14.07
2023-04-12T13:05:47.873Z,17.70
2023-04-12T13:08:49.194Z,13.57
2023-04-12T13:11:50.549Z,13.07
2023-04-12T13:14:54.420Z,11.32
2023-04-12T13:17:59.420Z,10.93
2023-04-12T13:21:00.775Z,14.15
2023-04-12T13:24:02.083Z,11.23
2023-04-12T13:27:03.408Z,14.90
2023-04-12T13:30:04.752Z,8.23
2023-04-12T13:33:06.161Z,8.48
2023-04-12T13:36:07.502Z,8.23
2023-04-12T13:39:08.801Z,9.03
2023-04-12T13:42:10.102Z,26.33
2023-04-12T13:45:11.386Z,53.88
2023-04-12T13:48:12.782Z,89.13
2023-04-12T13:51:14.132Z,59.65
2023-04-12T13:54:15.462Z,64.40
2023-04-12T13:57:16.776Z,58.45
2023-04-12T14:00:18.077Z,56.95
2023-04-12T14:03:19.375Z,48.33
2023-04-12T14:06:20.746Z,22.95
2023-04-12T14:09:22.048Z,16.17
2023-04-12T14:12:23.328Z,18.23
2023-04-12T14:15:24.669Z,18.25
2023-04-12T14:18:26.045Z,14.82
2023-04-12T14:21:27.412Z,13.38
2023-04-12T14:24:28.748Z,7.43
2023-04-12T14:27:30.053Z,20.73
2023-04-12T14:30:31.383Z,14.50
2023-04-12T14:33:32.710Z,18.13
2023-04-12T14:36:34.116Z,18.00
2023-04-12T14:39:35.430Z,19.30
2023-04-12T14:42:36.723Z,13.07
2023-04-12T14:45:38.003Z,12.93
2023-04-12T14:48:39.313Z,9.32
2023-04-12T14:51:40.613Z,12.35
2023-04-12T14:54:41.915Z,22.57
2023-04-12T14:57:43.216Z,94.13
2023-04-12T15:00:44.520Z,65.45
2023-04-12T15:03:46.016Z,57.03
2023-04-12T15:06:47.567Z,38.88
2023-04-12T15:09:48.950Z,61.80
2023-04-12T15:12:50.238Z,35.47
2023-04-12T15:15:51.556Z,41.45
2023-04-12T15:18:52.868Z,27.55
2023-04-12T15:21:54.172Z,22.98
2023-04-12T15:24:55.479Z,26.63
2023-04-12T15:27:56.768Z,29.08
2023-04-12T15:30:58.084Z,28.17
2023-04-12T15:33:59.592Z,16.95
2023-04-12T15:37:01.622Z,18.83
2023-04-12T15:40:03.002Z,9.43
2023-04-12T15:43:04.287Z,11.73
2023-04-12T15:46:05.685Z,11.45
2023-04-12T15:49:07.069Z,16.60
2023-04-12T15:52:08.395Z,8.55
2023-04-12T15:55:12.240Z,12.47
2023-04-12T15:58:13.897Z,6.68
2023-04-12T16:01:15.357Z,13.07
2023-04-12T16:04:16.799Z,12.93
2023-04-12T16:07:18.119Z,7.78
2023-04-12T16:10:19.415Z,6.27
2023-04-12T16:13:20.722Z,10.18
2023-04-12T16:16:22.088Z,7.28
2023-04-12T16:19:23.465Z,7.63
2023-04-12T16:22:24.770Z,10.05
2023-04-12T16:25:26.321Z,9.47
2023-04-12T16:28:27.649Z,8.05
2023-04-12T16:31:29.028Z,6.38
2023-04-12T16:34:30.369Z,10.57
2023-04-12T16:37:32.061Z,8.10
2023-04-12T16:40:33.454Z,8.33
2023-04-12T16:43:34.943Z,8.25
2023-04-12T16:46:36.748Z,6.90
2023-04-12T16:49:38.164Z,9.57
2023-04-12T16:52:40.789Z,6.80
2023-04-12T16:55:42.620Z,8.10
2023-04-12T16:58:44.036Z,14.00
2023-04-12T17:01:45.534Z,14.05
2023-04-12T17:04:47.348Z,16.00
2023-04-12T17:07:48.763Z,18.52
2023-04-12T17:10:50.189Z,11.23
2023-04-12T17:13:51.903Z,13.82
2023-04-12T17:16:53.456Z,10.95
2023-04-12T17:19:55.214Z,11.73
2023-04-12T17:22:57.085Z,12.80
2023-04-12T17:25:58.956Z,10.00
2023-04-12T17:29:03.666Z,12.02
2023-04-12T17:32:05.368Z,8.98
2023-04-12T17:35:07.146Z,14.20
2023-04-12T17:38:08.910Z,10.27
2023-04-12T17:41:10.428Z,10.67
2023-04-12T17:44:12.228Z,14.05
2023-04-12T17:47:14.017Z,14.93
2023-04-12T17:50:15.707Z,14.80
2023-04-12T17:53:17.048Z,16.92
2023-04-12T17:56:18.365Z,19.23
2023-04-12T17:59:20.055Z,16.27
2023-04-12T18:02:22.146Z,14.40
2023-04-12T18:05:23.777Z,15.00
2023-04-12T18:08:34.335Z,11.93
2023-04-12T18:11:36.594Z,11.70
2023-04-12T18:14:38.389Z,15.15
2023-04-12T18:17:40.195Z,14.00
2023-04-12T18:20:43.362Z,10.77
2023-04-12T18:23:45.188Z,12.68
2023-04-12T18:26:46.966Z,12.80
2023-04-12T18:29:49.115Z,14.25
2023-04-12T18:32:50.992Z,13.05
2023-04-12T18:35:52.861Z,11.05
2023-04-12T18:38:54.767Z,13.45
2023-04-12T18:41:56.667Z,12.80
2023-04-12T18:44:59.163Z,10.98
2023-04-12T18:48:01.095Z,10.50
2023-04-12T18:51:07.312Z,11.75
2023-04-12T18:54:09.256Z,13.40
2023-04-12T18:57:11.097Z,12.97
2023-04-12T19:00:12.987Z,12.73
2023-04-12T19:03:14.921Z,11.63
2023-04-12T19:06:16.922Z,13.07
2023-04-12T19:09:18.880Z,12.73
2023-04-12T19:12:20.859Z,13.93
2023-04-12T19:15:22.291Z,12.52
2023-04-12T19:18:26.480Z,11.40
2023-04-12T19:21:28.431Z,13.20
2023-04-12T19:24:30.414Z,11.95
2023-04-12T19:27:31.970Z,11.40
2023-04-12T19:30:34.371Z,12.05
2023-04-12T19:33:36.325Z,14.05
2023-04-12T19:36:39.351Z,13.38
2023-04-12T19:39:43.920Z,12.23
2023-04-12T19:42:45.822Z,12.30
2023-04-12T19:45:47.719Z,11.52
2023-04-12T19:48:49.615Z,12.27
2023-04-12T19:51:51.052Z,10.55
2023-04-12T19:54:52.404Z,11.05
2023-04-12T19:57:54.242Z,11.33
2023-04-12T20:00:56.222Z,10.52
2023-04-12T20:03:58.305Z,12.50
2023-04-12T20:07:00.319Z,11.85
2023-04-12T20:10:02.315Z,11.05
2023-04-12T20:13:04.277Z,12.07
2023-04-12T20:16:06.138Z,10.82
2023-04-12T20:19:08.040Z,12.80
2023-04-12T20:22:10.980Z,12.60
2023-04-12T20:25:12.888Z,9.38
2023-04-12T20:28:14.747Z,12.10
2023-04-12T20:31:16.628Z,11.20
2023-04-12T20:34:18.134Z,9.77
2023-04-12T20:37:19.752Z,9.65
2023-04-12T20:40:21.727Z,11.38
2023-04-12T20:43:23.418Z,11.60
2023-04-12T20:46:25.121Z,10.73
2023-04-12T20:49:26.518Z,10.68
2023-04-12T20:52:27.833Z,8.90
2023-04-12T20:55:29.616Z,12.23
2023-04-12T20:58:30.985Z,9.80
2023-04-12T21:01:32.331Z,10.07
2023-04-12T21:04:33.773Z,8.98
2023-04-12T21:07:35.150Z,9.23
2023-04-12T21:10:36.505Z,10.23
2023-04-12T21:13:37.819Z,8.30
2023-04-12T21:16:39.123Z,9.27
2023-04-12T21:19:40.429Z,8.82
2023-04-12T21:22:41.730Z,8.43
2023-04-12T21:25:43.027Z,7.82
2023-04-12T21:28:44.345Z,8.60
2023-04-12T21:31:45.736Z,7.47
2023-04-12T21:34:47.093Z,8.93
2023-04-12T21:37:48.381Z,7.25
2023-04-12T21:40:49.699Z,8.95
2023-04-12T21:43:50.990Z,9.27
2023-04-12T21:46:52.310Z,9.57
2023-04-12T21:49:53.589Z,12.05
2023-04-12T21:52:54.879Z,9.63
2023-04-12T21:55:56.174Z,7.93
2023-04-12T21:58:57.629Z,8.00
2023-04-12T22:01:59.127Z,8.65
2023-04-12T22:05:00.521Z,7.20
2023-04-12T22:08:01.836Z,8.07
2023-04-12T22:11:03.138Z,8.57
2023-04-12T22:14:04.446Z,8.17
2023-04-12T22:17:05.839Z,7.68
2023-04-12T22:20:07.219Z,7.78
2023-04-12T22:23:08.520Z,7.95
2023-04-12T22:26:09.827Z,9.07
2023-04-12T22:29:11.129Z,7.27
2023-04-12T22:32:12.415Z,9.63
2023-04-12T22:35:13.709Z,7.90
2023-04-12T22:38:15.006Z,7.63
2023-04-12T22:41:16.338Z,8.40
2023-04-12T22:44:17.659Z,6.63
2023-04-12T22:47:18.936Z,6.88
2023-04-12T22:50:20.272Z,6.03
2023-04-12T22:53:21.568Z,7.82
2023-04-12T22:56:22.875Z,8.18
2023-04-12T22:59:24.166Z,5.63
2023-04-12T23:02:25.553Z,6.53
2023-04-12T23:05:26.970Z,6.40
2023-04-12T23:08:28.327Z,7.95
2023-04-12T23:11:29.638Z,7.15
2023-04-12T23:14:30.969Z,6.60
2023-04-12T23:17:32.284Z,6.55
2023-04-12T23:20:33.608Z,6.85
2023-04-12T23:23:34.888Z,7.20
2023-04-12T23:26:36.188Z,7.40
2023-04-12T23:29:37.525Z,5.40
2023-04-12T23:32:38.820Z,6.38
2023-04-12T23:35:40.143Z,7.30
2023-04-12T23:38:41.428Z,6.43
2023-04-12T23:41:42.738Z,5.25
2023-04-12T23:44:44.035Z,5.40
2023-04-12T23:47:45.332Z,6.70
2023-04-12T23:50:46.635Z,6.07
2023-04-12T23:53:47.954Z,5.93
2023-04-12T23:56:49.254Z,5.75
2023-04-12T23:59:50.554Z,6.83
